createdAt,value
2018-01-13T00:00:49.743Z,27.83
2018-01-13T00:03:17.175Z,30.58
2018-01-13T00:05:44.594Z,28.90
2018-01-13T00:08:12.027Z,31.48
2018-01-13T00:10:39.442Z,27.70
2018-01-13T00:13:06.879Z,23.67
2018-01-13T00:15:34.294Z,27.75
2018-01-13T00:18:01.730Z,23.85
2018-01-13T00:20:29.154Z,24.67
2018-01-13T00:22:57.385Z,20.35
2018-01-13T00:25:24.803Z,24.45
2018-01-13T00:27:52.223Z,25.62
2018-01-13T00:30:19.659Z,22.17
2018-01-13T00:32:47.087Z,24.52
2018-01-13T00:35:14.564Z,24.25
2018-01-13T00:37:41.988Z,27.40
2018-01-13T00:40:09.422Z,24.42
2018-01-13T00:42:37.612Z,26.80
2018-01-13T00:45:05.048Z,21.87
2018-01-13T00:47:32.479Z,21.95
2018-01-13T00:49:59.911Z,25.17
2018-01-13T00:52:27.335Z,25.05
2018-01-13T00:54:54.754Z,25.88
2018-01-13T00:57:22.291Z,23.20
2018-01-13T00:59:49.720Z,25.85
2018-01-13T01:02:17.170Z,21.00
2018-01-13T01:04:44.591Z,26.30
2018-01-13T01:07:12.798Z,24.85
2018-01-13T01:09:40.230Z,27.50
2018-01-13T01:12:07.664Z,30.60
2018-01-13T01:14:35.091Z,28.35
2018-01-13T01:17:02.519Z,30.88
2018-01-13T01:19:29.938Z,25.15
2018-01-13T01:21:57.379Z,25.12
2018-01-13T01:24:24.803Z,26.62
2018-01-13T01:26:52.227Z,26.95
2018-01-13T01:29:19.673Z,29.05
2018-01-13T01:31:47.095Z,26.83
2018-01-13T01:34:14.530Z,23.23
2018-01-13T01:36:41.961Z,26.27
2018-01-13T01:39:09.395Z,30.67
2018-01-13T01:41:37.107Z,27.75
2018-01-13T01:44:05.546Z,27.02
2018-01-13T01:46:32.972Z,23.27
2018-01-13T01:49:00.571Z,27.15
2018-01-13T01:51:27.999Z,25.75
2018-01-13T01:53:55.418Z,22.87
2018-01-13T01:56:22.850Z,24.87
2018-01-13T01:58:50.276Z,32.63
2018-01-13T02:01:17.707Z,31.95
2018-01-13T02:03:45.138Z,27.85
2018-01-13T02:06:12.574Z,28.92
2018-01-13T02:08:39.995Z,28.45
2018-01-13T02:11:08.212Z,26.27
2018-01-13T02:13:35.630Z,28.55
2018-01-13T02:16:03.071Z,26.67
2018-01-13T02:18:30.494Z,30.25
2018-01-13T02:20:57.923Z,28.33
2018-01-13T02:23:25.364Z,29.00
2018-01-13T02:25:52.803Z,24.25
2018-01-13T02:28:21.006Z,26.98
2018-01-13T02:30:48.431Z,27.80
2018-01-13T02:33:15.871Z,26.50
2018-01-13T02:35:43.302Z,26.20
2018-01-13T02:38:10.742Z,27.58
2018-01-13T02:40:38.172Z,26.00
2018-01-13T02:43:05.603Z,24.77
2018-01-13T02:45:33.795Z,28.92
2018-01-13T02:48:01.226Z,26.87
2018-01-13T02:50:28.659Z,32.33
2018-01-13T02:52:56.101Z,27.77
2018-01-13T02:55:23.522Z,27.27
2018-01-13T02:57:50.951Z,27.10
2018-01-13T03:00:18.390Z,26.73
2018-01-13T03:02:45.817Z,27.45
2018-01-13T03:05:13.275Z,25.00
2018-01-13T03:07:40.694Z,26.20
2018-01-13T03:10:08.126Z,28.73
2018-01-13T03:12:35.553Z,26.95
2018-01-13T03:15:02.995Z,26.23
2018-01-13T03:17:30.423Z,25.20
2018-01-13T03:19:58.218Z,33.67
2018-01-13T03:22:25.647Z,29.65
2018-01-13T03:24:53.070Z,26.48
2018-01-13T03:27:20.502Z,30.00
2018-01-13T03:29:47.942Z,26.58
2018-01-13T03:32:15.370Z,24.67
2018-01-13T03:34:42.794Z,31.23
2018-01-13T03:37:10.230Z,27.67
2018-01-13T03:39:37.660Z,24.30
2018-01-13T03:42:05.095Z,24.12
2018-01-13T03:44:32.686Z,24.12
2018-01-13T03:47:00.148Z,27.85
2018-01-13T03:49:27.570Z,26.33
2018-01-13T03:51:54.999Z,26.23
2018-01-13T03:54:23.202Z,28.83
2018-01-13T03:56:50.630Z,23.85
2018-01-13T03:59:18.062Z,24.37
2018-01-13T04:01:45.486Z,30.67
2018-01-13T04:04:12.924Z,26.40
2018-01-13T04:06:40.346Z,25.15
2018-01-13T04:09:08.551Z,23.52
2018-01-13T04:11:35.994Z,25.48
2018-01-13T04:14:03.426Z,25.58
2018-01-13T04:16:30.850Z,20.80
2018-01-13T04:18:58.450Z,24.25
2018-01-13T04:21:25.875Z,32.78
2018-01-13T04:23:53.295Z,25.60
2018-01-13T04:26:20.727Z,23.75
2018-01-13T04:28:48.155Z,23.30
2018-01-13T04:31:15.591Z,28.50
2018-01-13T04:33:43.024Z,26.12
2018-01-13T04:36:10.459Z,29.00
2018-01-13T04:38:37.887Z,25.60
2018-01-13T04:41:05.323Z,29.73
2018-01-13T04:43:32.747Z,27.60
2018-01-13T04:46:00.182Z,27.25
2018-01-13T04:48:27.606Z,25.83
2018-01-13T04:50:55.059Z,25.27
2018-01-13T04:53:22.483Z,23.73
2018-01-13T04:55:49.907Z,37.03
2018-01-13T04:58:17.347Z,24.75
2018-01-13T05:00:44.766Z,22.27
2018-01-13T05:03:12.210Z,28.30
2018-01-13T05:05:39.634Z,29.92
2018-01-13T05:08:07.077Z,22.55
2018-01-13T05:10:34.539Z,26.90
2018-01-13T05:13:02.078Z,28.08
2018-01-13T05:15:29.511Z,26.60
2018-01-13T05:17:56.946Z,29.23
2018-01-13T05:20:24.374Z,29.52
2018-01-13T05:22:51.822Z,29.90
2018-01-13T05:25:19.243Z,30.62
2018-01-13T05:27:46.694Z,31.10
2018-01-13T05:30:14.108Z,30.40
2018-01-13T05:32:41.547Z,28.65
2018-01-13T05:35:09.113Z,33.35
2018-01-13T05:37:36.543Z,31.48
2018-01-13T05:40:04.743Z,33.88
2018-01-13T05:42:32.175Z,28.42
2018-01-13T05:44:59.602Z,29.30
2018-01-13T05:47:27.051Z,29.50
2018-01-13T05:49:54.475Z,28.52
2018-01-13T05:52:21.942Z,34.67
2018-01-13T05:54:49.379Z,32.47
2018-01-13T05:57:16.822Z,27.62
2018-01-13T05:59:44.273Z,32.13
2018-01-13T06:02:11.866Z,29.35
2018-01-13T06:04:39.302Z,30.52
2018-01-13T06:07:06.726Z,27.80
2018-01-13T06:09:34.165Z,28.12
2018-01-13T06:12:01.587Z,32.03
2018-01-13T06:14:29.055Z,29.33
2018-01-13T06:16:56.607Z,31.85
2018-01-13T06:19:24.047Z,29.55
2018-01-13T06:21:51.467Z,33.83
2018-01-13T06:24:18.902Z,26.15
2018-01-13T06:26:46.334Z,29.95
2018-01-13T06:29:13.762Z,24.48
2018-01-13T06:31:41.186Z,23.60
2018-01-13T06:34:09.390Z,27.40
2018-01-13T06:36:36.863Z,26.90
2018-01-13T06:39:04.315Z,29.70
2018-01-13T06:41:31.738Z,24.40
2018-01-13T06:43:59.170Z,28.60
2018-01-13T06:46:26.603Z,20.25
2018-01-13T06:48:54.027Z,22.70
2018-01-13T06:51:21.463Z,22.37
2018-01-13T06:53:48.886Z,27.50
2018-01-13T06:56:16.318Z,24.15
2018-01-13T06:58:43.742Z,22.83
2018-01-13T07:01:11.174Z,21.25
2018-01-13T07:03:38.598Z,22.20
2018-01-13T07:06:06.035Z,22.35
2018-01-13T07:08:33.571Z,24.50
2018-01-13T07:11:01.007Z,22.23
2018-01-13T07:13:28.430Z,19.92
2018-01-13T07:15:55.870Z,19.35
2018-01-13T07:18:23.303Z,20.37
2018-01-13T07:20:50.735Z,18.80
2018-01-13T07:23:18.167Z,21.48
2018-01-13T07:25:45.603Z,21.27
2018-01-13T07:28:13.031Z,21.52
2018-01-13T07:30:40.467Z,21.40
2018-01-13T07:33:07.889Z,22.67
2018-01-13T07:35:35.315Z,20.30
2018-01-13T07:38:02.818Z,22.55
2018-01-13T07:40:31.009Z,19.92
2018-01-13T07:42:58.450Z,22.00
2018-01-13T07:45:25.874Z,24.23
2018-01-13T07:47:53.314Z,24.60
2018-01-13T07:50:20.734Z,20.20
2018-01-13T07:52:48.170Z,20.83
2018-01-13T07:55:16.362Z,22.33
2018-01-13T07:57:43.803Z,18.77
2018-01-13T08:00:11.226Z,20.92
2018-01-13T08:02:38.666Z,21.30
2018-01-13T08:05:06.090Z,22.10
2018-01-13T08:07:33.531Z,25.10
2018-01-13T08:10:00.950Z,20.10
2018-01-13T08:12:28.386Z,22.40
2018-01-13T08:14:55.819Z,21.00
2018-01-13T08:17:23.259Z,20.83
2018-01-13T08:19:50.684Z,20.83
2018-01-13T08:22:18.127Z,26.45
2018-01-13T08:24:45.552Z,27.35
2018-01-13T08:27:13.004Z,21.75
2018-01-13T08:29:40.439Z,19.02
2018-01-13T08:32:07.858Z,23.08
2018-01-13T08:34:36.067Z,22.95
2018-01-13T08:37:04.263Z,18.08
2018-01-13T08:39:31.701Z,17.65
2018-01-13T08:41:59.127Z,17.75
2018-01-13T08:44:27.330Z,17.35
2018-01-13T08:46:54.758Z,19.48
2018-01-13T08:49:22.194Z,20.52
2018-01-13T08:51:49.624Z,16.27
2018-01-13T08:54:17.062Z,16.33
2018-01-13T08:56:44.495Z,17.73
2018-01-13T08:59:12.690Z,19.50
2018-01-13T09:02:00.822Z,17.08
2018-01-13T09:04:28.390Z,19.58
2018-01-13T09:06:55.822Z,19.00
2018-01-13T09:09:24.018Z,19.10
2018-01-13T09:11:51.447Z,19.83
2018-01-13T09:14:18.886Z,20.10
2018-01-13T09:16:46.306Z,19.92
2018-01-13T09:19:13.752Z,23.10
2018-01-13T09:21:41.172Z,24.70
2018-01-13T09:24:09.374Z,16.47
2018-01-13T09:26:37.058Z,20.40
2018-01-13T09:29:04.516Z,15.20
2018-01-13T09:31:31.941Z,18.40
2018-01-13T09:33:59.358Z,15.57
2018-01-13T09:36:27.565Z,15.63
2018-01-13T09:38:54.986Z,16.30
2018-01-13T09:41:22.430Z,15.40
2018-01-13T09:43:49.861Z,17.73
2018-01-13T09:46:17.298Z,16.77
2018-01-13T09:48:44.722Z,17.43
2018-01-13T09:51:12.941Z,18.13
2018-01-13T09:53:40.367Z,17.10
2018-01-13T09:56:07.806Z,16.27
2018-01-13T09:58:35.226Z,15.77
2018-01-13T10:01:02.679Z,12.83
2018-01-13T10:03:30.115Z,17.15
2018-01-13T10:05:57.550Z,14.10
2018-01-13T10:08:24.978Z,19.08
2018-01-13T10:10:52.416Z,17.00
2018-01-13T10:13:19.843Z,17.10
2018-01-13T10:15:47.415Z,19.87
2018-01-13T10:18:14.846Z,18.75
2018-01-13T10:20:42.278Z,18.13
2018-01-13T10:23:09.707Z,19.73
2018-01-13T10:25:37.135Z,15.73
2018-01-13T10:28:04.566Z,24.43
2018-01-13T10:30:31.983Z,15.87
2018-01-13T10:32:59.410Z,14.17
2018-01-13T10:35:26.835Z,15.50
2018-01-13T10:37:54.271Z,17.90
2018-01-13T10:40:21.703Z,17.50
2018-01-13T10:42:49.126Z,18.73
2018-01-13T10:45:16.563Z,15.18
2018-01-13T10:47:44.003Z,16.73
2018-01-13T10:50:12.306Z,12.67
2018-01-13T10:52:39.739Z,17.00
2018-01-13T10:55:07.163Z,13.77
2018-01-13T10:57:34.594Z,15.00
2018-01-13T11:00:02.018Z,13.60
2018-01-13T11:02:29.457Z,12.97
2018-01-13T11:04:56.874Z,14.37
2018-01-13T11:07:24.311Z,14.20
2018-01-13T11:09:51.736Z,14.40
2018-01-13T11:12:19.163Z,10.60
2018-01-13T11:14:47.350Z,13.97
2018-01-13T11:17:14.787Z,14.87
2018-01-13T11:19:42.217Z,17.83
2018-01-13T11:22:09.638Z,17.47
2018-01-13T11:24:37.069Z,17.97
2018-01-13T11:27:05.246Z,20.13
2018-01-13T11:29:32.674Z,20.13
2018-01-13T11:32:00.103Z,17.50
2018-01-13T11:34:27.535Z,20.23
2018-01-13T11:36:54.958Z,21.80
2018-01-13T11:39:22.395Z,19.83
2018-01-13T11:41:50.007Z,18.43
2018-01-13T11:44:17.443Z,20.63
2018-01-13T11:46:44.858Z,15.13
2018-01-13T11:49:13.065Z,15.67
2018-01-13T11:51:40.483Z,16.70
2018-01-13T11:54:07.918Z,17.17
2018-01-13T11:56:35.342Z,17.17
2018-01-13T11:59:02.770Z,18.30
2018-01-13T12:01:30.190Z,14.20
2018-01-13T12:03:57.624Z,19.93
2018-01-13T12:06:25.046Z,17.67
2018-01-13T12:08:53.233Z,17.90
2018-01-13T12:11:20.662Z,17.43
2018-01-13T12:13:48.078Z,20.00
2018-01-13T12:16:15.516Z,20.10
2018-01-13T12:18:42.938Z,18.40
2018-01-13T12:21:11.139Z,18.43
2018-01-13T12:23:38.558Z,17.30
2018-01-13T12:26:06.071Z,14.40
2018-01-13T12:28:33.485Z,17.30
2018-01-13T12:31:00.918Z,21.37
2018-01-13T12:33:28.338Z,18.60
2018-01-13T12:35:55.774Z,15.83
2018-01-13T12:38:23.200Z,18.50
2018-01-13T12:40:51.454Z,18.17
2018-01-13T12:43:18.879Z,18.70
2018-01-13T12:45:46.295Z,17.47
2018-01-13T12:48:13.726Z,15.97
2018-01-13T12:50:41.150Z,15.43
2018-01-13T12:53:08.608Z,14.40
2018-01-13T12:55:36.034Z,15.70
2018-01-13T12:58:03.474Z,18.47
2018-01-13T13:00:31.654Z,15.13
2018-01-13T13:02:59.099Z,16.70
2018-01-13T13:05:26.565Z,12.87
2018-01-13T13:07:53.946Z,16.00
2018-01-13T13:10:21.378Z,14.67
2018-01-13T13:12:49.066Z,12.10
2018-01-13T13:15:16.487Z,15.07
2018-01-13T13:17:43.923Z,13.63
2018-01-13T13:20:11.347Z,15.53
2018-01-13T13:22:38.775Z,13.70
2018-01-13T13:25:06.203Z,15.20
2018-01-13T13:27:33.631Z,14.70
2018-01-13T13:30:01.065Z,13.47
2018-01-13T13:32:28.483Z,11.93
2018-01-13T13:34:55.915Z,12.30
2018-01-13T13:37:24.107Z,13.67
2018-01-13T13:39:51.543Z,16.67
2018-01-13T13:42:18.967Z,14.70
2018-01-13T13:44:46.399Z,18.20
2018-01-13T13:47:13.814Z,16.17
2018-01-13T13:49:42.014Z,19.03
2018-01-13T13:52:09.435Z,15.93
2018-01-13T13:54:36.875Z,17.60
2018-01-13T13:57:04.291Z,16.57
2018-01-13T13:59:31.731Z,14.63
2018-01-13T14:01:59.175Z,16.77
2018-01-13T14:04:27.357Z,15.10
2018-01-13T14:06:54.811Z,13.93
2018-01-13T14:09:22.242Z,12.65
2018-01-13T14:11:49.664Z,11.97
2018-01-13T14:14:17.092Z,14.33
2018-01-13T14:16:44.518Z,12.03
2018-01-13T14:19:12.710Z,15.67
2018-01-13T14:21:40.147Z,13.75
2018-01-13T14:24:07.595Z,13.27
2018-01-13T14:26:35.070Z,11.30
2018-01-13T14:29:02.571Z,11.50
2018-01-13T14:31:30.023Z,12.43
2018-01-13T14:33:57.479Z,12.60
2018-01-13T14:36:25.008Z,11.60
2018-01-13T14:38:52.450Z,11.88
2018-01-13T14:41:19.883Z,10.20
2018-01-13T14:43:47.414Z,13.18
2018-01-13T14:46:14.941Z,12.33
2018-01-13T14:48:42.398Z,12.75
2018-01-13T14:51:09.867Z,12.30
2018-01-13T14:53:37.342Z,12.27
2018-01-13T14:56:04.792Z,10.93
2018-01-13T14:58:32.248Z,11.50
2018-01-13T15:00:59.711Z,10.43
2018-01-13T15:03:27.239Z,11.07
2018-01-13T15:05:55.455Z,13.05
2018-01-13T15:08:22.913Z,13.02
2018-01-13T15:10:50.399Z,11.12
2018-01-13T15:13:17.895Z,10.20
2018-01-13T15:15:46.107Z,10.40
2018-01-13T15:18:13.558Z,11.88
2018-01-13T15:20:41.252Z,12.70
2018-01-13T15:23:08.721Z,11.93
2018-01-13T15:25:36.209Z,13.30
2018-01-13T15:28:03.675Z,13.77
2018-01-13T15:30:31.163Z,13.53
2018-01-13T15:32:58.583Z,12.80
2018-01-13T15:35:26.056Z,13.50
2018-01-13T15:37:53.543Z,13.30
2018-01-13T15:40:21.023Z,14.60
2018-01-13T15:42:48.490Z,15.20
2018-01-13T15:45:15.959Z,13.77
2018-01-13T15:47:43.439Z,15.52
2018-01-13T15:50:10.896Z,13.57
2018-01-13T15:52:38.360Z,12.47
2018-01-13T15:55:05.868Z,14.30
2018-01-13T15:57:33.321Z,13.55
2018-01-13T16:00:00.804Z,12.27
2018-01-13T16:02:28.248Z,12.47
2018-01-13T16:04:55.795Z,13.80
2018-01-13T16:07:23.283Z,12.95
2018-01-13T16:09:50.722Z,13.53
2018-01-13T16:12:18.187Z,13.80
2018-01-13T16:14:45.683Z,12.27
2018-01-13T16:17:13.194Z,11.70
2018-01-13T16:19:41.405Z,14.68
2018-01-13T16:22:08.924Z,12.43
2018-01-13T16:24:36.407Z,11.70
2018-01-13T16:27:03.858Z,12.45
2018-01-13T16:29:31.333Z,14.43
2018-01-13T16:31:58.811Z,16.70
2018-01-13T16:34:26.263Z,15.93
2018-01-13T16:36:53.743Z,14.33
2018-01-13T16:39:21.200Z,16.08
2018-01-13T16:41:48.667Z,13.88
2018-01-13T16:44:16.130Z,14.00
2018-01-13T16:46:43.634Z,13.35
2018-01-13T16:49:11.083Z,15.37
2018-01-13T16:51:38.555Z,14.50
2018-01-13T16:54:06.038Z,12.93
2018-01-13T16:56:33.521Z,15.40
2018-01-13T16:59:01.039Z,11.68
2018-01-13T17:01:28.530Z,13.35
2018-01-13T17:03:56.743Z,19.47
2018-01-13T17:06:24.315Z,13.98
2018-01-13T17:08:51.823Z,14.15
2018-01-13T17:11:20.059Z,14.98
2018-01-13T17:13:47.529Z,13.47
2018-01-13T17:16:14.983Z,14.65
2018-01-13T17:18:42.452Z,13.65
2018-01-13T17:21:09.922Z,15.65
2018-01-13T17:23:38.156Z,17.03
2018-01-13T17:26:05.629Z,12.75
2018-01-13T17:28:33.131Z,13.00
2018-01-13T17:31:00.571Z,14.73
2018-01-13T17:33:28.807Z,14.27
2018-01-13T17:35:56.277Z,17.95
2018-01-13T17:38:23.748Z,14.13
2018-01-13T17:40:51.191Z,16.05
2018-01-13T17:43:18.642Z,13.15
2018-01-13T17:45:46.124Z,21.37
2018-01-13T17:48:13.608Z,14.57
2018-01-13T17:50:41.093Z,13.90
2018-01-13T17:53:09.323Z,13.88
2018-01-13T17:55:37.559Z,14.10
2018-01-13T17:58:05.151Z,11.70
2018-01-13T18:00:32.615Z,15.10
2018-01-13T18:03:00.068Z,12.57
2018-01-13T18:05:28.299Z,14.65
2018-01-13T18:07:55.758Z,12.23
2018-01-13T18:10:23.223Z,13.02
2018-01-13T18:12:50.668Z,16.87
2018-01-13T18:15:18.188Z,13.90
2018-01-13T18:17:45.639Z,13.45
2018-01-13T18:20:13.113Z,14.77
2018-01-13T18:22:40.563Z,13.57
2018-01-13T18:25:08.146Z,13.93
2018-01-13T18:27:35.641Z,14.30
2018-01-13T18:30:03.099Z,11.35
2018-01-13T18:32:30.579Z,12.95
2018-01-13T18:34:58.011Z,11.25
2018-01-13T18:37:25.493Z,12.45
2018-01-13T18:39:52.940Z,11.68
2018-01-13T18:42:20.407Z,11.38
2018-01-13T18:44:47.867Z,14.00
2018-01-13T18:47:15.322Z,11.93
2018-01-13T18:49:42.795Z,14.77
2018-01-13T18:52:10.262Z,12.68
2018-01-13T18:54:37.787Z,12.85
2018-01-13T18:57:05.287Z,15.30
2018-01-13T18:59:32.739Z,11.95
2018-01-13T19:02:00.195Z,11.43
2018-01-13T19:04:27.653Z,12.52
2018-01-13T19:06:56.027Z,12.02
2018-01-13T19:09:23.486Z,12.40
2018-01-13T19:11:50.931Z,16.40
2018-01-13T19:14:18.427Z,14.18
2018-01-13T19:16:45.887Z,13.62
2018-01-13T19:19:13.388Z,13.50
2018-01-13T19:21:40.875Z,14.87
2018-01-13T19:24:08.389Z,14.63
2018-01-13T19:26:35.966Z,13.77
2018-01-13T19:29:03.485Z,14.63
2018-01-13T19:31:30.970Z,12.53
2018-01-13T19:33:58.508Z,16.13
2018-01-13T19:36:25.952Z,13.32
2018-01-13T19:38:53.459Z,13.95
2018-01-13T19:41:20.938Z,16.05
2018-01-13T19:43:48.409Z,14.50
2018-01-13T19:46:15.846Z,15.85
2018-01-13T19:48:43.307Z,15.73
2018-01-13T19:51:10.779Z,16.33
2018-01-13T19:53:39.151Z,11.77
2018-01-13T19:56:06.641Z,14.82
2018-01-13T19:58:34.067Z,16.17
2018-01-13T20:01:01.560Z,13.13
2018-01-13T20:03:28.999Z,16.98
2018-01-13T20:05:57.268Z,11.98
2018-01-13T20:08:24.724Z,16.00
2018-01-13T20:10:52.190Z,15.30
2018-01-13T20:13:19.627Z,17.65
2018-01-13T20:15:47.088Z,14.60
2018-01-13T20:18:14.543Z,16.98
2018-01-13T20:20:42.000Z,14.23
2018-01-13T20:23:09.455Z,21.87
2018-01-13T20:25:36.931Z,17.23
2018-01-13T20:28:04.371Z,15.97
2018-01-13T20:30:31.817Z,19.35
2018-01-13T20:32:59.281Z,20.47
2018-01-13T20:35:26.731Z,22.30
2018-01-13T20:37:54.266Z,21.00
2018-01-13T20:40:21.724Z,19.10
2018-01-13T20:42:49.206Z,16.02
2018-01-13T20:45:16.685Z,16.23
2018-01-13T20:47:44.159Z,16.42
2018-01-13T20:50:12.412Z,16.77
2018-01-13T20:52:39.906Z,16.10
2018-01-13T20:55:07.367Z,16.40
2018-01-13T20:57:34.836Z,18.07
2018-01-13T21:00:02.483Z,17.92
2018-01-13T21:02:32.853Z,16.87
2018-01-13T21:05:00.297Z,15.90
2018-01-13T21:07:27.751Z,16.93
2018-01-13T21:09:55.174Z,16.10
2018-01-13T21:12:22.620Z,20.12
2018-01-13T21:14:50.053Z,18.30
2018-01-13T21:17:17.508Z,15.05
2018-01-13T21:19:45.716Z,16.80
2018-01-13T21:22:13.175Z,19.75
2018-01-13T21:24:40.695Z,15.57
2018-01-13T21:27:08.139Z,18.85
2018-01-13T21:29:35.562Z,17.00
2018-01-13T21:32:03.003Z,21.62
2018-01-13T21:34:30.455Z,14.23
2018-01-13T21:36:57.893Z,17.25
2018-01-13T21:39:25.363Z,20.20
2018-01-13T21:41:52.799Z,17.40
2018-01-13T21:44:20.271Z,20.05
2018-01-13T21:46:47.705Z,18.05
2018-01-13T21:49:15.915Z,17.90
2018-01-13T21:51:43.352Z,18.27
2018-01-13T21:54:10.846Z,18.90
2018-01-13T21:56:38.302Z,16.60
2018-01-13T21:59:05.782Z,15.60
2018-01-13T22:01:33.246Z,17.40
2018-01-13T22:04:00.711Z,17.90
2018-01-13T22:06:28.975Z,14.65
2018-01-13T22:08:56.471Z,15.27
2018-01-13T22:11:23.931Z,15.13
2018-01-13T22:13:51.455Z,17.73
2018-01-13T22:16:18.916Z,18.48
2018-01-13T22:18:46.382Z,17.40
2018-01-13T22:21:13.838Z,15.77
2018-01-13T22:23:41.276Z,19.03
2018-01-13T22:26:08.762Z,18.50
2018-01-13T22:28:36.218Z,17.33
2018-01-13T22:31:03.735Z,15.40
2018-01-13T22:33:31.186Z,16.42
2018-01-13T22:35:58.680Z,20.52
2018-01-13T22:38:26.959Z,18.62
2018-01-13T22:40:54.444Z,17.73
2018-01-13T22:43:21.901Z,15.02
2018-01-13T22:45:49.419Z,15.77
2018-01-13T22:48:17.667Z,20.80
2018-01-13T22:50:45.138Z,14.52
2018-01-13T22:53:12.606Z,16.60
2018-01-13T22:55:40.219Z,15.37
2018-01-13T22:58:07.679Z,14.73
2018-01-13T23:00:54.799Z,13.50
2018-01-13T23:03:22.284Z,16.35
2018-01-13T23:05:49.811Z,14.20
2018-01-13T23:08:17.275Z,15.80
2018-01-13T23:10:44.764Z,16.67
2018-01-13T23:13:12.245Z,16.83
2018-01-13T23:15:39.735Z,13.32
2018-01-13T23:18:07.209Z,14.32
2018-01-13T23:20:34.663Z,17.83
2018-01-13T23:23:02.144Z,19.27
2018-01-13T23:25:29.622Z,16.12
2018-01-13T23:27:57.106Z,19.30
2018-01-13T23:30:24.577Z,14.10
2018-01-13T23:32:52.075Z,16.12
2018-01-13T23:35:19.530Z,19.03
2018-01-13T23:37:47.786Z,17.17
2018-01-13T23:40:15.240Z,16.55
2018-01-13T23:42:42.759Z,18.52
2018-01-13T23:45:10.251Z,16.20
2018-01-13T23:47:37.739Z,19.52
2018-01-13T23:50:05.214Z,16.37
2018-01-13T23:52:32.692Z,18.90
2018-01-13T23:55:00.166Z,14.50
2018-01-13T23:57:27.634Z,14.93
2018-01-13T23:59:55.107Z,19.05
